Data for 10/07/2014

Time Sea-Level Adjusted Pressure Absolute Pressure Temperature Relative Humidity Dew Point   
(mb) (inHg) (mb) (inHg) (C) (F) (%) (C) (F)
00:05 1019 30.09 848 25.04 15.2 59.4 43 2.9 37.3
00:10 1019 30.09 848 25.04 15.4 59.7 43 2.9 37.3
00:15 1019 30.09 848 25.04 15.5 59.8 43 2.9 37.3
00:20 1019 30.09 848 25.04 15.6 60 43 3 37.4
00:25 1019 30.09 848 25.04 15.6 60 44 3.3 38
00:30 1019 30.09 848 25.04 15.3 59.6 44 3.3 38
00:35 1019 30.09 848 25.04 15.3 59.5 43 2.9 37.2
00:40 1019 30.09 848 25.04 15.4 59.7 43 2.9 37.1
00:45 1019 30.09 848 25.04 15.5 59.9 42 2.7 36.8
00:50 1019 30.09 848 25.04 15.6 60 42 2.8 37.1
00:55 1019 30.09 848 25.04 15.5 59.8 42 2.6 36.7
01:00 1019 30.09 848 25.04 15.5 59.8 42 2.7 36.9
01:05 1019 30.09 848 25.04 15.3 59.6 42 2.6 36.7
01:10 1019 30.09 848 25.04 15.3 59.5 43 2.8 37.1
01:15 1019 30.09 848 25.04 14.9 58.8 47 3.8 38.9
01:20 1019 30.09 848 25.04 14.1 57.3 48 3.2 37.7
01:25 1019 30.09 848 25.04 14.4 57.9 45 2.6 36.6
01:30 1019 30.09 848 25.04 15 59 42 2.5 36.4
01:35 1019 30.09 848 25.04 15.2 59.3 43 2.7 36.8
01:40 1019 30.09 848 25.04 15.1 59.2 43 2.8 37.1
01:45 1019 30.09 848 25.04 15 59.1 43 2.8 37
01:50 1019 30.09 848 25.04 14.9 58.9 43 2.7 36.8
01:55 1019 30.09 848 25.04 15 58.9 42 2.4 36.2
02:00 1019 30.09 848 25.04 15.2 59.3 43 2.6 36.7
02:05 1019 30.09 848 25.04 15.2 59.3 43 2.6 36.7
02:10 1019 30.09 848 25.04 15.1 59.2 43 2.6 36.6
02:15 1019 30.09 848 25.04 15 59.1 43 2.6 36.7
02:20 1019 30.09 848 25.04 14.9 58.9 44 2.8 37.1
02:25 1019 30.09 848 25.04 14.7 58.5 45 3 37.4
02:30 1019 30.09 848 25.04 14.6 58.2 45 2.9 37.3
02:35 1019 30.09 848 25.04 14.4 58 45 2.8 37
02:40 1019 30.09 848 25.04 14.3 57.8 46 3 37.4
02:45 1019 30.09 848 25.04 14.1 57.5 46 2.8 37.1
02:50 1019 30.09 848 25.04 13.9 57.1 47 3 37.3
02:55 1019 30.09 848 25.04 13.9 57 46 2.6 36.6
03:00 1019 30.09 848 25.04 14.2 57.5 45 2.6 36.6
03:05 1019 30.09 848 25.04 14.5 58.1 45 2.8 37
03:10 1019 30.09 848 25.04 14.5 58.2 45 2.9 37.2
03:15 1019 30.09 848 25.04 14.4 57.8 46 3.1 37.5
03:20 1019 30.09 848 25.04 14.3 57.7 46 2.9 37.1
03:25 1019 30.09 848 25.04 14.1 57.4 47 3.1 37.6
03:30 1019 30.09 848 25.04 14 57.1 47 3 37.4
03:35 1019 30.09 848 25.04 13.8 56.9 48 3.1 37.6
03:40 1019 30.09 848 25.04 13.7 56.7 48 3.1 37.6
03:45 1019 30.09 848 25.04 13.7 56.7 49 3.4 38.1
03:50 1019 30.09 848 25.04 13.7 56.6 48 3 37.4
03:55 1019 30.09 848 25.04 13.6 56.4 49 3 37.4
04:00 1019 30.09 848 25.04 13.5 56.3 48 2.8 37
04:05 1019 30.09 848 25.04 13.6 56.4 48 2.9 37.2
04:10 1019 30.09 848 25.04 13.6 56.4 49 3.1 37.6
04:15 1019 30.09 848 25.04 13.6 56.5 48 2.8 37
04:20 1019 30.09 848 25.04 13.5 56.4 48 2.8 37
04:25 1019 30.09 848 25.04 13.4 56.1 49 2.9 37.3
04:30 1019 30.09 848 25.04 13.2 55.8 50 3 37.3
04:35 1019 30.09 848 25.04 13 55.4 50 3 37.3
04:40 1019 30.09 848 25.04 12.9 55.2 50 2.8 37
04:45 1019 30.09 848 25.04 13 55.4 49 2.7 36.9
04:50 1019 30.09 848 25.04 13.2 55.7 50 3.1 37.5
04:55 1019 30.09 848 25.04 13 55.4 50 3 37.3
05:00 1019 30.09 848 25.04 12.9 55.2 52 3.2 37.8
05:05 1019 30.09 848 25.04 12.5 54.5 52 3 37.4
05:10 1019 30.09 848 25.04 12.5 54.4 53 3.1 37.6
05:15 1019 30.09 848 25.04 12.3 54.1 54 3.3 37.9
05:20 1019 30.09 848 25.04 12 53.6 55 3.2 37.7
05:25 1019 30.09 848 25.04 12.1 53.8 53 2.8 37
05:30 1019 30.09 848 25.04 12.3 54.2 53 3.1 37.6
05:35 1019 30.09 848 25.04 12.1 53.9 54 3.2 37.7
05:40 1019 30.09 848 25.04 12 53.6 54 3.1 37.5
05:45 1019 30.09 848 25.04 12 53.7 54 3 37.4
05:50 1019 30.09 848 25.04 11.8 53.3 55 3.2 37.7
05:55 1019 30.09 848 25.04 11.7 53.1 55 3 37.4
06:00 1019 30.09 848 25.04 11.6 52.9 56 3.2 37.7
06:05 1019 30.09 848 25.04 11.5 52.6 56 2.9 37.3
06:10 1019 30.09 848 25.04 11.7 53 54 2.7 36.8
06:15 1019 30.09 848 25.04 11.9 53.4 54 2.9 37.3
06:20 1019 30.09 848 25.04 11.8 53.3 53 2.7 36.8
06:25 1019 30.09 848 25.04 12.1 53.8 52 2.6 36.7
06:30 1019 30.09 848 25.04 11.8 53.3 59 4 39.2
06:35 1019 30.09 848 25.04 10.5 50.9 58 2.6 36.8
06:40 1019 30.09 848 25.04 11 51.8 58 3.1 37.5
06:45 1019 30.09 848 25.04 10.9 51.6 58 3 37.5
06:50 1019 30.09 848 25.04 11.4 52.6 53 2.3 36.2
06:55 1019 30.09 848 25.04 12.4 54.2 51 2.5 36.6
07:00 1019 30.09 848 25.04 12.6 54.7 49 2.4 36.3
07:05 1019 30.09 848 25.04 12.8 55.1 51 2.9 37.2
07:10 1019 30.09 848 25.04 12.9 55.1 50 2.6 36.8
07:15 1019 30.09 848 25.04 13 55.3 50 3 37.3
07:20 1019 30.09 848 25.04 12.6 54.7 53 3.3 37.9
07:25 1019 30.09 848 25.04 12 53.6 55 3.2 37.8
07:30 1019 30.09 848 25.04 11.7 53 55 3 37.4
07:35 1019 30.09 849 25.07 11.6 52.9 56 3.2 37.8
07:40 1019 30.09 849 25.07 11.5 52.6 56 3 37.5
07:45 1019 30.09 849 25.07 11.6 52.9 55 2.9 37.2
07:50 1019 30.09 849 25.07 11.8 53.2 56 3.3 37.9
07:55 1019 30.09 849 25.07 11.6 52.8 56 3.2 37.8
08:00 1019 30.09 849 25.07 11.4 52.4 58 3.4 38.1
08:05 1019 30.09 849 25.07 11 51.8 60 3.6 38.4
08:10 1019 30.09 849 25.07 10.9 51.5 60 3.5 38.3
08:15 1019 30.09 849 25.07 10.9 51.6 61 3.7 38.6
08:20 1020 30.12 849 25.07 10.8 51.4 63 4.1 39.3
08:25 1020 30.12 849 25.07 9.9 49.9 66 4 39.2
08:30 1020 30.12 849 25.07 9.8 49.6 65 3.6 38.4
08:35 1020 30.12 849 25.07 10.5 50.9 61 3.3 37.9
08:40 1020 30.12 849 25.07 11.8 53.2 58 3.8 38.8
08:45 1020 30.12 849 25.07 12.7 54.8 56 4.1 39.4
08:50 1020 30.12 849 25.07 13.2 55.7 55 4.4 39.9
08:55 1020 30.12 849 25.07 13.9 57.1 52 4.3 39.7
09:00 1020 30.12 849 25.07 14.6 58.2 53 5.1 41.2
09:05 1020 30.12 849 25.07 15 59 50 4.6 40.3
09:10 1020 30.12 849 25.07 15.8 60.4 46 4.4 40
09:15 1020 30.12 849 25.07 16 60.9 46 4.5 40.1
09:20 1020 30.12 849 25.07 16 60.7 44 3.7 38.7
09:25 1020 30.12 849 25.07 16.5 61.6 40 3.1 37.6
09:30 1020 30.12 849 25.07 17.1 62.7 39 3.1 37.7
09:35 1020 30.12 849 25.07 17.3 63.1 37 2.6 36.8
09:40 1020 30.12 849 25.07 17.3 63.1 37 2.5 36.5
09:45 1020 30.12 849 25.07 17.7 63.9 37 3.1 37.5
09:50 1020 30.12 849 25.07 18 64.3 35 2.5 36.5
09:55 1020 30.12 849 25.07 18.3 64.9 35 2.8 37.1
10:00 1020 30.12 849 25.07 18.5 65.2 35 2.7 36.8
10:05 1020 30.12 849 25.07 19.2 66.5 33 2.7 36.8
10:10 1020 30.12 849 25.07 19.2 66.5 33 2.8 37
10:15 1020 30.12 849 25.07 19.6 67.4 32 2.7 36.8
10:20 1020 30.12 849 25.07 20.3 68.5 31 2.8 37.1
10:25 1019 30.09 849 25.07 20.5 68.9 32 3.3 37.9
10:30 1019 30.09 849 25.07 20.1 68.1 33 3.3 37.9
10:35 1019 30.09 849 25.07 19.7 67.4 33 3.3 38
10:40 1020 30.12 849 25.07 19.2 66.6 36 3.9 38.9
10:45 1019 30.09 849 25.07 19.4 66.9 34 3.1 37.6
10:50 1020 30.12 849 25.07 20 68 33 3.5 38.2
10:55 1020 30.12 849 25.07 20.4 68.6 32 3.5 38.3
11:00 1020 30.12 849 25.07 21.3 70.3 31 3.8 38.8
11:05 1019 30.09 849 25.07 21.2 70.2 30 3.4 38.1
11:10 1019 30.09 849 25.07 21.2 70.2 31 3.7 38.7
11:15 1019 30.09 849 25.07 20.5 68.9 33 3.9 39
11:20 1019 30.09 849 25.07 20.8 69.4 32 3.7 38.7
11:25 1019 30.09 849 25.07 21.2 70.2 31 3.6 38.4
11:30 1019 30.09 849 25.07 21.2 70.1 31 3.8 38.8
11:35 1019 30.09 848 25.04 21 69.7 31 3.6 38.4
11:40 1019 30.09 848 25.04 21.7 71.1 31 4 39.1
11:45 1019 30.09 848 25.04 22.1 71.8 30 3.8 38.8
11:50 1019 30.09 848 25.04 21.4 70.6 31 3.7 38.6
11:55 1019 30.09 848 25.04 21.5 70.6 31 3.9 39.1
12:00 1019 30.09 848 25.04 21.2 70.2 30 3.2 37.8
12:05 1019 30.09 848 25.04 21.4 70.5 31 3.9 39.1
12:10 1019 30.09 848 25.04 21 69.9 31 3.5 38.2
12:15 1019 30.09 848 25.04 22 71.7 30 3.6 38.6
12:20 1019 30.09 848 25.04 22 71.6 31 4.1 39.5
12:25 1019 30.09 848 25.04 22.7 72.9 27 3 37.4
12:30 1019 30.09 848 25.04 23.2 73.8 28 3.8 38.9
12:35 1019 30.09 848 25.04 23.4 74 27 3.5 38.3
12:40 1019 30.09 848 25.04 22.5 72.5 29 3.6 38.5
12:45 1019 30.09 848 25.04 23.1 73.6 27 3.5 38.3
12:50 1019 30.09 848 25.04 23.4 74 28 4 39.1
12:55 1019 30.09 848 25.04 23.4 74 27 3.3 37.9
13:00 1019 30.09 848 25.04 23.7 74.6 28 4.3 39.7
13:05 1019 30.09 848 25.04 23.4 74.2 27 3.4 38.1
13:10 1019 30.09 848 25.04 23.6 74.4 27 3.8 38.8
13:15 1018 30.06 848 25.04 23.4 74.1 28 4.2 39.6
13:20 1019 30.09 848 25.04 23.1 73.5 27 3.5 38.3
13:25 1018 30.06 848 25.04 22.7 72.8 29 3.8 38.9
13:30 1018 30.06 848 25.04 23.2 73.8 28 3.7 38.6
13:35 1018 30.06 848 25.04 23.2 73.7 30 4.7 40.5
13:40 1018 30.06 848 25.04 22.5 72.5 29 4 39.2
13:45 1018 30.06 848 25.04 23 73.3 27 3.4 38.1
13:50 1018 30.06 847 25.01 23.1 73.5 27 3.1 37.6
13:55 1018 30.06 847 25.01 23.7 74.7 26 3.2 37.8
14:00 1018 30.06 847 25.01 24 75.1 26 3.8 38.8
14:05 1018 30.06 847 25.01 23.8 74.8 27 4.1 39.4
14:10 1018 30.06 847 25.01 23.5 74.2 26 3 37.3
14:15 1018 30.06 847 25.01 23.5 74.4 25 2.6 36.7
14:20 1018 30.06 847 25.01 23.5 74.3 26 3 37.5
14:25 1018 30.06 847 25.01 23.5 74.3 26 3.2 37.7
14:30 1018 30.06 847 25.01 24.1 75.3 24 2.5 36.6
14:35 1018 30.06 847 25.01 23.6 74.5 24 1.9 35.4
14:40 1018 30.06 847 25.01 23.4 74.2 24 2.2 35.9
14:45 1018 30.06 847 25.01 23.7 74.6 24 2.1 35.8
14:50 1018 30.06 847 25.01 23.8 74.9 24 2.4 36.4
14:55 1018 30.06 847 25.01 23.6 74.6 25 2.5 36.4
15:00 1018 30.06 847 25.01 23.7 74.6 24 2.2 35.9
15:05 1018 30.06 847 25.01 23.7 74.7 24 2 35.7
15:10 1018 30.06 847 25.01 24.1 75.4 24 2.5 36.4
15:15 1018 30.06 847 25.01 24 75.2 24 2.2 36
15:20 1018 30.06 847 25.01 23.8 74.8 24 2.4 36.3
15:25 1018 30.06 847 25.01 23.8 74.9 24 2.2 36
15:30 1018 30.06 847 25.01 23.8 74.8 24 2.4 36.4
15:35 1018 30.06 847 25.01 23.7 74.6 24 2.2 35.9
15:40 1018 30.06 847 25.01 23.6 74.5 25 2.7 36.9
15:45 1018 30.06 847 25.01 23.8 74.8 24 2.2 35.9
15:50 1018 30.06 847 25.01 23.6 74.5 24 2.3 36.1
15:55 1017 30.03 847 25.01 23.3 74 26 2.9 37.1
16:00 1017 30.03 847 25.01 23.3 73.9 25 2.5 36.4
16:05 1017 30.03 847 25.01 23.7 74.6 24 2.4 36.3
16:10 1017 30.03 847 25.01 24 75.2 23 2.1 35.7
16:15 1017 30.03 846 24.98 23.9 75.1 24 2.3 36.1
16:20 1017 30.03 846 24.98 23.4 74.1 25 2.5 36.5
16:25 1017 30.03 846 24.98 23.1 73.6 25 2 35.5
16:30 1017 30.03 846 24.98 23.6 74.4 24 2.2 35.9
16:35 1017 30.03 846 24.98 23.5 74.3 26 2.8 37.1
16:40 1017 30.03 846 24.98 23.7 74.7 25 3 37.3
16:45 1017 30.03 846 24.98 24.1 75.4 23 2.2 35.9
16:50 1017 30.03 846 24.98 24.1 75.3 24 2.4 36.4
16:55 1017 30.03 846 24.98 23.8 74.9 24 2.2 36
17:00 1017 30.03 846 24.98 23.6 74.4 24 2.3 36.1
17:05 1017 30.03 846 24.98 23.6 74.4 25 2.4 36.3
17:10 1017 30.03 846 24.98 23.5 74.4 24 2 35.7
17:15 1017 30.03 846 24.98 23.4 74.1 24 1.9 35.4
17:20 1017 30.03 846 24.98 23.3 74 25 2.6 36.7
17:25 1017 30.03 846 24.98 23.1 73.5 25 2.3 36.1
17:30 1017 30.03 846 24.98 22.7 72.9 27 2.8 37
17:35 1017 30.03 846 24.98 22.2 72 27 2.7 36.9
17:40 1017 30.03 846 24.98 21.8 71.2 28 2.6 36.7
17:45 1017 30.03 846 24.98 21 69.9 30 3.1 37.5
17:50 1017 30.03 846 24.98 20.6 69 30 2.7 36.9
17:55 1017 30.03 846 24.98 20.2 68.3 32 3 37.4
18:00 1017 30.03 846 24.98 19.6 67.2 41 6 42.8
18:05 1017 30.03 846 24.98 18.5 65.4 42 5.7 42.2
18:10 1017 30.03 846 24.98 18.1 64.6 44 5.9 42.5
18:15 1017 30.03 846 24.98 17.5 63.6 44 5.4 41.7
18:20 1017 30.03 846 24.98 16.9 62.4 47 5.5 41.9
18:25 1017 30.03 846 24.98 16.6 61.8 47 5.2 41.3
18:30 1017 30.03 846 24.98 16.4 61.5 47 5.2 41.4
18:35 1017 30.03 846 24.98 16.1 61.1 47 4.9 40.7
18:40 1017 30.03 846 24.98 16 60.9 47 4.7 40.5
18:45 1017 30.03 846 24.98 16 60.8 46 4.5 40.2
18:50 1017 30.03 846 24.98 15.9 60.6 47 4.6 40.3
18:55 1017 30.03 847 25.01 15.7 60.3 49 5.2 41.3
19:00 1017 30.03 847 25.01 15.8 60.4 49 5.2 41.4
19:05 1017 30.03 847 25.01 15.6 60 47 4.3 39.8
19:10 1017 30.03 847 25.01 15.4 59.8 47 4.3 39.8
19:15 1017 30.03 847 25.01 15.3 59.6 47 4.2 39.5
19:20 1017 30.03 847 25.01 15.3 59.5 48 4.3 39.7
19:25 1017 30.03 847 25.01 15 59 48 4.1 39.3
19:30 1017 30.03 847 25.01 14.8 58.7 48 3.9 39.1
19:35 1017 30.03 847 25.01 14.6 58.3 50 4.3 39.8
19:40 1017 30.03 847 25.01 14.3 57.7 50 4.1 39.4
19:45 1017 30.03 847 25.01 14 57.3 51 4.1 39.4
19:50 1017 30.03 847 25.01 13.9 57 51 3.9 39
19:55 1017 30.03 847 25.01 13.8 56.9 51 3.9 39
20:00 1017 30.03 847 25.01 13.7 56.7 51 3.8 38.9
20:05 1017 30.03 847 25.01 13.7 56.6 51 3.8 38.8
20:10 1018 30.06 847 25.01 13.6 56.6 50 3.5 38.3
20:15 1018 30.06 847 25.01 13.7 56.7 49 3.4 38.1
20:20 1018 30.06 847 25.01 14 57.3 48 3.2 37.7
20:25 1018 30.06 847 25.01 14.1 57.5 47 2.9 37.3
20:30 1018 30.06 847 25.01 14.3 57.8 47 3.3 37.9
20:35 1018 30.06 847 25.01 14.1 57.4 46 2.9 37.2
20:40 1018 30.06 847 25.01 14.1 57.4 48 3.3 37.9
20:45 1018 30.06 847 25.01 13.9 57.1 48 3.2 37.7
20:50 1018 30.06 847 25.01 14 57.2 47 2.8 37
20:55 1018 30.06 847 25.01 14.1 57.4 46 2.8 37.1
21:00 1018 30.06 847 25.01 14 57.2 47 2.9 37.2
21:05 1018 30.06 847 25.01 14.1 57.3 45 2.5 36.5
21:10 1018 30.06 847 25.01 14.2 57.5 46 2.9 37.3
21:15 1018 30.06 847 25.01 13.8 56.9 48 3.2 37.7
21:20 1018 30.06 847 25.01 13.5 56.4 49 3 37.4
21:25 1018 30.06 847 25.01 13.4 56 50 3.1 37.6
21:30 1018 30.06 847 25.01 13.2 55.8 50 3.2 37.8
21:35 1018 30.06 847 25.01 13 55.4 51 3.1 37.6
21:40 1018 30.06 847 25.01 12.9 55.2 51 3 37.4
21:45 1018 30.06 847 25.01 13 55.4 49 2.7 36.9
21:50 1018 30.06 847 25.01 13.2 55.8 49 2.7 36.9
21:55 1018 30.06 847 25.01 13.2 55.8 49 2.8 37
22:00 1018 30.06 847 25.01 13.1 55.6 49 2.8 37.1
22:05 1018 30.06 847 25.01 13 55.5 49 2.7 36.9
22:10 1018 30.06 847 25.01 13.1 55.5 50 2.9 37.2
22:15 1018 30.06 847 25.01 13.3 55.9 49 2.9 37.3
22:20 1018 30.06 847 25.01 13.4 56.1 48 2.6 36.6
22:25 1018 30.06 847 25.01 13.8 56.8 47 2.7 36.8
22:30 1018 30.06 847 25.01 13.6 56.5 48 2.7 36.9
22:35 1018 30.06 847 25.01 13.3 55.9 49 2.7 36.9
22:40 1018 30.06 847 25.01 13 55.4 50 2.8 37
22:45 1018 30.06 847 25.01 12.9 55.2 50 2.6 36.8
22:50 1018 30.06 847 25.01 12.8 55 50 2.6 36.7
22:55 1018 30.06 847 25.01 13 55.5 48 2.4 36.3
23:00 1018 30.06 847 25.01 13.3 56 48 2.6 36.7
23:05 1018 30.06 847 25.01 13.2 55.7 49 2.7 36.9
23:10 1018 30.06 847 25.01 13 55.4 49 2.7 36.8
23:15 1018 30.06 847 25.01 13.1 55.5 49 2.6 36.7
23:20 1018 30.06 847 25.01 13.1 55.6 48 2.4 36.3
23:25 1018 30.06 847 25.01 13.3 55.9 48 2.5 36.6
23:30 1018 30.06 847 25.01 13.3 56 47 2.5 36.5
23:35 1018 30.06 847 25.01 13.3 55.9 47 2.3 36.2
23:40 1018 30.06 847 25.01 13.2 55.8 47 2.4 36.3
23:45 1018 30.06 847 25.01 13.1 55.5 48 2.3 36.1
23:50 1018 30.06 847 25.01 13.1 55.6 47 2.2 35.9
23:55 1018 30.06 847 25.01 13.2 55.7 47 2.2 36
24:00 1018 30.06 847 25.01 12.9 55.3 48 2.4 36.2